createdAt,value
2022-08-26T00:01:53.817Z,20.53
2022-08-26T00:04:23.189Z,20.51
2022-08-26T00:06:51.348Z,20.48
2022-08-26T00:09:18.085Z,20.43
2022-08-26T00:11:46.073Z,20.40
2022-08-26T00:14:14.177Z,20.37
2022-08-26T00:16:47.287Z,20.35
2022-08-26T00:19:21.162Z,20.34
2022-08-26T00:21:49.858Z,20.31
2022-08-26T00:24:18.510Z,20.28
2022-08-26T00:26:45.961Z,20.26
2022-08-26T00:29:14.051Z,20.25
2022-08-26T00:31:43.032Z,20.22
2022-08-26T00:34:12.831Z,20.16
2022-08-26T00:36:40.924Z,20.08
2022-08-26T00:39:09.195Z,20.01
2022-08-26T00:41:39.492Z,19.94
2022-08-26T00:44:07.173Z,19.88
2022-08-26T00:46:37.121Z,19.81
2022-08-26T00:49:17.155Z,19.73
2022-08-26T00:51:49.634Z,19.67
2022-08-26T00:54:17.392Z,19.63
2022-08-26T00:56:53.752Z,19.64
2022-08-26T00:59:22.433Z,19.64
2022-08-26T01:01:50.219Z,19.65
2022-08-26T01:04:19.912Z,19.65
2022-08-26T01:06:49.811Z,19.67
2022-08-26T01:09:18.192Z,19.69
2022-08-26T01:11:45.652Z,19.69
2022-08-26T01:14:13.532Z,19.68
2022-08-26T01:16:42.240Z,19.66
2022-08-26T01:19:41.113Z,19.67
2022-08-26T01:22:12.250Z,19.69
2022-08-26T01:24:39.191Z,19.71
2022-08-26T01:27:10.070Z,19.74
2022-08-26T01:29:38.804Z,19.78
2022-08-26T01:32:08.077Z,19.80
2022-08-26T01:34:38.770Z,19.79
2022-08-26T01:37:22.697Z,19.78
2022-08-26T01:39:52.086Z,19.77
2022-08-26T01:42:21.092Z,19.76
2022-08-26T01:44:57.940Z,19.75
2022-08-26T01:47:26.223Z,19.73
2022-08-26T01:49:55.134Z,19.73
2022-08-26T01:52:28.386Z,19.74
2022-08-26T01:54:56.065Z,19.74
2022-08-26T01:57:24.152Z,19.74
2022-08-26T01:59:53.340Z,19.76
2022-08-26T02:02:20.393Z,19.76
2022-08-26T02:04:51.352Z,19.75
2022-08-26T02:07:19.595Z,19.72
2022-08-26T02:09:48.491Z,19.65
2022-08-26T02:12:17.278Z,19.56
2022-08-26T02:14:49.750Z,19.50
2022-08-26T02:17:18.961Z,19.46
2022-08-26T02:19:50.012Z,19.40
2022-08-26T02:22:20.538Z,19.35
2022-08-26T02:24:56.965Z,19.31
2022-08-26T02:27:32.117Z,19.28
2022-08-26T02:30:15.087Z,19.26
2022-08-26T02:32:44.629Z,19.27
2022-08-26T02:35:14.130Z,19.28
2022-08-26T02:37:47.971Z,19.31
2022-08-26T02:40:21.451Z,19.35
2022-08-26T02:42:49.272Z,19.39
2022-08-26T02:45:23.061Z,19.42
2022-08-26T02:47:51.556Z,19.42
2022-08-26T02:50:20.226Z,19.44
2022-08-26T02:52:48.463Z,19.45
2022-08-26T02:55:16.145Z,19.43
2022-08-26T02:57:43.191Z,19.38
2022-08-26T03:00:12.640Z,19.31
2022-08-26T03:02:40.872Z,19.27
2022-08-26T03:05:08.254Z,19.26
2022-08-26T03:07:34.753Z,19.27
2022-08-26T03:10:01.712Z,19.27
2022-08-26T03:12:35.408Z,19.28
2022-08-26T03:15:02.002Z,19.30
2022-08-26T03:17:29.810Z,19.32
2022-08-26T03:19:57.193Z,19.35
2022-08-26T03:22:25.646Z,19.36
2022-08-26T03:24:54.136Z,19.36
2022-08-26T03:27:21.082Z,19.36
2022-08-26T03:30:06.752Z,19.36
2022-08-26T03:32:33.702Z,19.38
2022-08-26T03:35:01.265Z,19.39
2022-08-26T03:37:28.009Z,19.38
2022-08-26T03:39:54.880Z,19.37
2022-08-26T03:42:21.900Z,19.35
2022-08-26T03:44:48.934Z,19.35
2022-08-26T03:47:15.460Z,19.37
2022-08-26T03:49:42.611Z,19.38
2022-08-26T03:52:10.272Z,19.40
2022-08-26T03:54:37.033Z,19.41
2022-08-26T03:57:04.370Z,19.41
2022-08-26T03:59:31.931Z,19.41
2022-08-26T04:01:58.504Z,19.43
2022-08-26T04:04:25.708Z,19.42
2022-08-26T04:06:58.188Z,19.41
2022-08-26T04:09:25.972Z,19.41
2022-08-26T04:11:54.636Z,19.38
2022-08-26T04:14:23.718Z,19.37
2022-08-26T04:16:52.031Z,19.37
2022-08-26T04:19:20.414Z,19.40
2022-08-26T04:21:48.250Z,19.43
2022-08-26T04:24:16.557Z,19.48
2022-08-26T04:26:44.713Z,19.50
2022-08-26T04:29:15.569Z,19.52
2022-08-26T04:31:42.116Z,19.53
2022-08-26T04:34:09.554Z,19.54
2022-08-26T04:36:38.434Z,19.56
2022-08-26T04:39:05.624Z,19.58
2022-08-26T04:41:33.173Z,19.60
2022-08-26T04:44:01.455Z,19.62
2022-08-26T04:46:28.617Z,19.64
2022-08-26T04:48:55.298Z,19.67
2022-08-26T04:51:27.052Z,19.70
2022-08-26T04:53:58.837Z,19.73
2022-08-26T04:56:32.512Z,19.78
2022-08-26T04:59:00.994Z,19.83
2022-08-26T05:01:28.785Z,19.88
2022-08-26T05:03:56.139Z,19.94
2022-08-26T05:06:22.755Z,19.97
2022-08-26T05:08:49.843Z,20.03
2022-08-26T05:11:16.456Z,20.06
2022-08-26T05:13:43.175Z,20.10
2022-08-26T05:16:13.520Z,20.14
2022-08-26T05:18:43.465Z,20.17
2022-08-26T05:21:41.713Z,20.20
2022-08-26T05:24:11.733Z,20.26
2022-08-26T05:26:38.476Z,20.29
2022-08-26T05:29:06.210Z,20.33
2022-08-26T05:31:34.243Z,20.38
2022-08-26T05:34:03.816Z,20.44
2022-08-26T05:36:33.029Z,20.50
2022-08-26T05:39:01.593Z,20.56
2022-08-26T05:41:34.425Z,20.61
2022-08-26T05:44:06.073Z,20.68
2022-08-26T05:46:33.876Z,20.75
2022-08-26T05:49:01.556Z,20.80
2022-08-26T05:51:30.434Z,20.87
2022-08-26T05:53:58.361Z,20.95
2022-08-26T05:56:27.470Z,21.02
2022-08-26T05:58:55.462Z,21.09
2022-08-26T06:01:27.659Z,21.15
2022-08-26T06:04:01.789Z,21.21
2022-08-26T06:06:32.313Z,21.27
2022-08-26T06:09:00.558Z,21.33
2022-08-26T06:11:29.135Z,21.40
2022-08-26T06:14:04.003Z,21.45
2022-08-26T06:16:34.486Z,21.49
2022-08-26T06:19:03.336Z,21.54
2022-08-26T06:21:33.126Z,21.58
2022-08-26T06:24:20.709Z,21.62
2022-08-26T06:26:56.803Z,21.64
2022-08-26T06:29:25.757Z,21.68
2022-08-26T06:31:54.254Z,21.75
2022-08-26T06:34:29.898Z,21.81
2022-08-26T06:36:59.826Z,21.87
2022-08-26T06:39:28.316Z,21.93
2022-08-26T06:41:58.819Z,21.96
2022-08-26T06:44:26.695Z,21.99
2022-08-26T06:46:54.171Z,22.04
2022-08-26T06:49:26.919Z,22.08
2022-08-26T06:51:57.657Z,22.13
2022-08-26T06:54:24.909Z,22.19
2022-08-26T06:56:52.174Z,22.25
2022-08-26T06:59:18.998Z,22.28
2022-08-26T07:01:48.338Z,22.31
2022-08-26T07:04:22.085Z,22.34
2022-08-26T07:06:52.607Z,22.36
2022-08-26T07:09:21.716Z,22.40
2022-08-26T07:11:49.280Z,22.47
2022-08-26T07:14:17.667Z,22.56
2022-08-26T07:16:51.375Z,22.67
2022-08-26T07:19:28.529Z,22.78
2022-08-26T07:22:01.603Z,22.88
2022-08-26T07:24:29.275Z,23.00
2022-08-26T07:27:05.491Z,23.08
2022-08-26T07:29:34.326Z,23.19
2022-08-26T07:32:01.638Z,23.28
2022-08-26T07:34:28.856Z,23.38
2022-08-26T07:36:56.761Z,23.45
2022-08-26T07:39:26.336Z,23.54
2022-08-26T07:41:53.781Z,23.62
2022-08-26T07:44:20.957Z,23.72
2022-08-26T07:46:52.237Z,23.83
2022-08-26T07:49:22.165Z,23.93
2022-08-26T07:51:50.405Z,24.00
2022-08-26T07:54:17.433Z,24.07
2022-08-26T07:56:47.136Z,24.15
2022-08-26T07:59:15.291Z,24.18
2022-08-26T08:01:44.737Z,24.20
2022-08-26T08:04:17.055Z,24.21
2022-08-26T08:06:45.457Z,24.29
2022-08-26T08:09:14.426Z,24.35
2022-08-26T08:11:44.508Z,24.43
2022-08-26T08:14:11.976Z,24.49
2022-08-26T08:16:45.899Z,24.58
2022-08-26T08:19:14.845Z,24.65
2022-08-26T08:21:42.918Z,24.72
2022-08-26T08:24:10.471Z,24.81
2022-08-26T08:26:37.408Z,24.88
2022-08-26T08:29:04.674Z,24.97
2022-08-26T08:34:21.584Z,25.09
2022-08-26T08:36:50.220Z,25.13
2022-08-26T08:39:20.316Z,25.18
2022-08-26T08:42:05.874Z,25.22
2022-08-26T08:44:33.456Z,25.28
2022-08-26T08:47:06.091Z,25.33
2022-08-26T08:49:33.567Z,25.39
2022-08-26T08:52:12.820Z,25.45
2022-08-26T08:54:39.439Z,25.52
2022-08-26T08:57:17.696Z,25.58
2022-08-26T08:59:54.753Z,25.63
2022-08-26T09:02:34.400Z,25.71
2022-08-26T09:05:25.216Z,25.81
2022-08-26T09:08:08.191Z,25.91
2022-08-26T09:10:51.285Z,25.99
2022-08-26T09:13:25.058Z,26.04
2022-08-26T09:16:21.441Z,26.08
2022-08-26T09:19:20.615Z,26.13
2022-08-26T09:21:57.890Z,26.20
2022-08-26T09:24:28.881Z,26.25
2022-08-26T09:26:57.799Z,26.31
2022-08-26T09:29:31.594Z,26.37
2022-08-26T09:32:23.956Z,26.44
2022-08-26T09:34:59.492Z,26.51
2022-08-26T09:40:27.095Z,26.60
2022-08-26T09:43:11.414Z,26.62
2022-08-26T09:45:40.878Z,26.67
2022-08-26T09:48:25.910Z,26.72
2022-08-26T09:50:59.388Z,26.77
2022-08-26T09:53:36.608Z,26.81
2022-08-26T09:56:33.513Z,26.84
2022-08-26T09:59:01.272Z,26.88
2022-08-26T10:01:42.710Z,26.92
2022-08-26T10:04:21.818Z,26.95
2022-08-26T10:06:59.454Z,26.97
2022-08-26T10:09:28.123Z,27.02
2022-08-26T10:11:59.814Z,27.07
2022-08-26T10:14:36.775Z,27.13
2022-08-26T10:17:30.931Z,27.19
2022-08-26T10:20:27.334Z,27.26
2022-08-26T10:23:15.521Z,27.28
2022-08-26T10:26:00.479Z,27.27
2022-08-26T10:28:31.684Z,27.28
2022-08-26T10:31:03.874Z,27.33
2022-08-26T10:33:31.122Z,27.39
2022-08-26T10:36:00.942Z,27.46
2022-08-26T10:38:39.535Z,27.55
2022-08-26T10:41:11.489Z,27.64
2022-08-26T10:43:44.078Z,27.69
2022-08-26T10:46:18.067Z,27.74
2022-08-26T10:48:56.413Z,27.81
2022-08-26T10:51:35.362Z,27.85
2022-08-26T10:54:29.712Z,27.89
2022-08-26T10:57:13.145Z,27.94
2022-08-26T11:00:30.016Z,27.99
2022-08-26T11:03:29.309Z,28.06
2022-08-26T11:06:18.375Z,28.11
2022-08-26T11:08:51.096Z,28.09
2022-08-26T11:11:40.378Z,28.09
2022-08-26T11:14:31.416Z,28.13
2022-08-26T11:17:11.052Z,28.18
2022-08-26T11:19:59.440Z,28.23
2022-08-26T11:22:35.458Z,28.30
2022-08-26T11:25:09.513Z,28.37
2022-08-26T11:27:38.298Z,28.42
2022-08-26T11:30:30.974Z,28.45
2022-08-26T11:32:59.349Z,28.51
2022-08-26T11:35:26.390Z,28.58
2022-08-26T11:38:04.490Z,28.64
2022-08-26T11:40:38.251Z,28.69
2022-08-26T11:43:13.422Z,28.74
2022-08-26T11:45:48.838Z,28.74
2022-08-26T11:48:23.933Z,28.72
2022-08-26T11:50:56.604Z,28.73
2022-08-26T11:53:26.096Z,28.79
2022-08-26T11:55:54.977Z,28.83
2022-08-26T11:58:24.929Z,28.84
2022-08-26T12:00:59.307Z,28.87
2022-08-26T12:03:47.513Z,28.90
2022-08-26T12:06:43.398Z,28.93
2022-08-26T12:09:20.636Z,28.95
2022-08-26T12:11:47.373Z,28.97
2022-08-26T12:14:24.073Z,29.01
2022-08-26T12:16:51.444Z,29.05
2022-08-26T12:19:32.873Z,29.09
2022-08-26T12:22:23.441Z,29.12
2022-08-26T12:25:00.169Z,29.15
2022-08-26T12:27:39.862Z,29.15
2022-08-26T12:30:12.471Z,29.15
2022-08-26T12:32:57.964Z,29.15
2022-08-26T12:35:26.823Z,29.21
2022-08-26T12:37:54.564Z,29.23
2022-08-26T12:40:40.857Z,29.25
2022-08-26T12:43:09.624Z,29.29
2022-08-26T12:45:36.584Z,29.33
2022-08-26T12:48:10.409Z,29.33
2022-08-26T12:50:41.034Z,29.34
2022-08-26T12:53:10.654Z,29.36
2022-08-26T12:55:49.091Z,29.36
2022-08-26T12:58:15.823Z,29.35
2022-08-26T13:00:48.504Z,29.36
2022-08-26T13:03:32.317Z,29.33
2022-08-26T13:06:23.164Z,29.31
2022-08-26T13:08:51.628Z,29.34
2022-08-26T13:11:25.819Z,29.36
2022-08-26T13:14:00.151Z,29.38
2022-08-26T13:16:29.232Z,29.41
2022-08-26T13:19:06.411Z,29.44
2022-08-26T13:21:49.117Z,29.48
2022-08-26T13:24:36.476Z,29.49
2022-08-26T13:27:30.323Z,29.52
2022-08-26T13:29:57.696Z,29.55
2022-08-26T13:32:27.566Z,29.57
2022-08-26T13:34:58.556Z,29.59
2022-08-26T13:37:34.548Z,29.62
2022-08-26T13:40:05.174Z,29.66
2022-08-26T13:42:32.008Z,29.65
2022-08-26T13:44:59.636Z,29.63
2022-08-26T13:47:27.768Z,29.63
2022-08-26T13:49:55.960Z,29.63
2022-08-26T13:52:30.151Z,29.62
2022-08-26T13:55:00.592Z,29.61
2022-08-26T13:57:30.262Z,29.60
2022-08-26T13:59:59.220Z,29.60
2022-08-26T14:02:27.258Z,29.59
2022-08-26T14:04:55.660Z,29.58
2022-08-26T14:07:22.815Z,29.56
2022-08-26T14:09:49.802Z,29.55
2022-08-26T14:12:16.412Z,29.54
2022-08-26T14:14:43.575Z,29.53
2022-08-26T14:17:14.666Z,29.55
2022-08-26T14:19:45.637Z,29.57
2022-08-26T14:22:14.534Z,29.58
2022-08-26T14:24:41.275Z,29.59
2022-08-26T14:27:07.893Z,29.59
2022-08-26T14:29:34.958Z,29.60
2022-08-26T14:32:14.060Z,29.60
2022-08-26T14:34:46.554Z,29.61
2022-08-26T14:37:15.405Z,29.64
2022-08-26T14:39:42.194Z,29.67
2022-08-26T14:42:09.954Z,29.65
2022-08-26T14:44:37.517Z,29.63
2022-08-26T14:47:06.616Z,29.62
2022-08-26T14:49:33.539Z,29.63
2022-08-26T14:52:00.614Z,29.62
2022-08-26T14:54:28.995Z,29.63
2022-08-26T14:56:58.300Z,29.61
2022-08-26T14:59:49.718Z,29.60
2022-08-26T15:02:32.435Z,29.59
2022-08-26T15:05:02.270Z,29.56
2022-08-26T15:07:29.076Z,29.53
2022-08-26T15:09:55.934Z,29.52
2022-08-26T15:12:22.753Z,29.51
2022-08-26T15:14:49.995Z,29.49
2022-08-26T15:17:17.363Z,29.45
2022-08-26T15:19:45.014Z,29.41
2022-08-26T15:22:11.540Z,29.40
2022-08-26T15:24:38.194Z,29.42
2022-08-26T15:27:05.347Z,29.43
2022-08-26T15:29:32.861Z,29.43
2022-08-26T15:32:04.354Z,29.43
2022-08-26T15:34:31.925Z,29.44
2022-08-26T15:36:58.553Z,29.44
2022-08-26T15:39:25.194Z,29.44
2022-08-26T15:41:52.534Z,29.45
2022-08-26T15:44:19.914Z,29.44
2022-08-26T15:46:48.626Z,29.42
2022-08-26T15:49:17.807Z,29.42
2022-08-26T15:51:47.558Z,29.41
2022-08-26T15:54:16.466Z,29.39
2022-08-26T15:56:43.703Z,29.38
2022-08-26T15:59:11.924Z,29.37
2022-08-26T16:01:40.860Z,29.36
2022-08-26T16:04:07.634Z,29.35
2022-08-26T16:06:37.352Z,29.32
2022-08-26T16:09:05.267Z,29.29
2022-08-26T16:11:32.054Z,29.25
2022-08-26T16:13:58.909Z,29.21
2022-08-26T16:16:27.142Z,29.19
2022-08-26T16:18:55.182Z,29.15
2022-08-26T16:21:25.054Z,29.11
2022-08-26T16:23:52.114Z,29.08
2022-08-26T16:26:22.134Z,29.03
2022-08-26T16:28:48.754Z,29.00
2022-08-26T16:31:15.799Z,28.97
2022-08-26T16:33:42.739Z,28.94
2022-08-26T16:36:11.036Z,28.90
2022-08-26T16:38:40.321Z,28.86
2022-08-26T16:41:08.103Z,28.82
2022-08-26T16:43:36.154Z,28.79
2022-08-26T16:46:06.219Z,28.74
2022-08-26T16:48:34.381Z,28.70
2022-08-26T16:51:01.794Z,28.65
2022-08-26T16:53:29.976Z,28.59
2022-08-26T16:55:57.017Z,28.52
2022-08-26T16:58:24.476Z,28.46
2022-08-26T17:00:51.133Z,28.41
2022-08-26T17:03:18.817Z,28.37
2022-08-26T17:05:46.654Z,28.33
2022-08-26T17:08:24.212Z,28.26
2022-08-26T17:10:59.913Z,28.17
2022-08-26T17:13:31.642Z,28.06
2022-08-26T17:16:02.016Z,27.96
2022-08-26T17:18:31.274Z,27.87
2022-08-26T17:21:02.043Z,27.76
2022-08-26T17:23:29.464Z,27.64
2022-08-26T17:25:57.455Z,27.51
2022-08-26T17:28:24.294Z,27.39
2022-08-26T17:30:51.473Z,27.29
2022-08-26T17:33:21.448Z,27.19
2022-08-26T17:35:51.281Z,27.08
2022-08-26T17:38:18.399Z,26.99
2022-08-26T17:40:45.146Z,26.88
2022-08-26T17:43:12.627Z,26.78
2022-08-26T17:45:42.122Z,26.68
2022-08-26T17:48:10.340Z,26.57
2022-08-26T17:50:38.975Z,26.47
2022-08-26T17:53:05.665Z,26.39
2022-08-26T17:55:33.460Z,26.30
2022-08-26T17:58:00.302Z,26.22
2022-08-26T18:00:30.627Z,26.12
2022-08-26T18:02:58.211Z,26.02
2022-08-26T18:05:25.539Z,25.91
2022-08-26T18:07:53.510Z,25.79
2022-08-26T18:10:21.898Z,25.67
2022-08-26T18:12:50.069Z,25.55
2022-08-26T18:15:17.533Z,25.43
2022-08-26T18:17:44.994Z,25.32
2022-08-26T18:20:15.208Z,25.20
2022-08-26T18:22:43.275Z,25.10
2022-08-26T18:25:11.501Z,25.01
2022-08-26T18:27:38.415Z,24.95
2022-08-26T18:30:16.423Z,24.88
2022-08-26T18:32:44.058Z,24.80
2022-08-26T18:35:11.824Z,24.71
2022-08-26T18:37:38.758Z,24.61
2022-08-26T18:40:07.770Z,24.51
2022-08-26T18:42:35.754Z,24.44
2022-08-26T18:45:04.273Z,24.37
2022-08-26T18:47:32.416Z,24.31
2022-08-26T18:50:01.201Z,24.25
2022-08-26T18:52:28.534Z,24.19
2022-08-26T18:54:55.335Z,24.12
2022-08-26T18:57:22.234Z,24.06
2022-08-26T18:59:49.379Z,24.00
2022-08-26T19:02:16.583Z,23.95
2022-08-26T19:04:43.898Z,23.89
2022-08-26T19:07:11.012Z,23.82
2022-08-26T19:09:37.756Z,23.76
2022-08-26T19:12:05.327Z,23.68
2022-08-26T19:14:33.382Z,23.62
2022-08-26T19:17:01.648Z,23.55
2022-08-26T19:19:28.815Z,23.48
2022-08-26T19:21:56.972Z,23.43
2022-08-26T19:24:27.383Z,23.37
2022-08-26T19:26:58.291Z,23.32
2022-08-26T19:29:29.040Z,23.28
2022-08-26T19:31:56.646Z,23.24
2022-08-26T19:34:24.514Z,23.21
2022-08-26T19:36:53.577Z,23.19
2022-08-26T19:39:21.362Z,23.17
2022-08-26T19:41:49.541Z,23.14
2022-08-26T19:44:38.269Z,23.11
2022-08-26T19:47:07.769Z,23.06
2022-08-26T19:49:35.356Z,23.02
2022-08-26T19:52:03.561Z,22.97
2022-08-26T19:54:31.295Z,22.93
2022-08-26T19:56:58.775Z,22.88
2022-08-26T19:59:26.439Z,22.84
2022-08-26T20:02:01.003Z,22.79
2022-08-26T20:04:30.858Z,22.75
2022-08-26T20:07:00.603Z,22.69
2022-08-26T20:09:33.159Z,22.63
2022-08-26T20:12:01.527Z,22.56
2022-08-26T20:14:30.083Z,22.52
2022-08-26T20:16:57.628Z,22.47
2022-08-26T20:19:43.975Z,22.44
2022-08-26T20:22:12.334Z,22.38
2022-08-26T20:24:40.000Z,22.29
2022-08-26T20:27:08.138Z,22.18
2022-08-26T20:29:36.557Z,22.05
2022-08-26T20:32:08.585Z,21.97
2022-08-26T20:34:37.907Z,21.92
2022-08-26T20:37:05.295Z,21.86
2022-08-26T20:39:32.762Z,21.82
2022-08-26T20:41:59.795Z,21.78
2022-08-26T20:44:27.875Z,21.71
2022-08-26T20:46:56.715Z,21.60
2022-08-26T20:49:23.974Z,21.50
2022-08-26T20:51:52.247Z,21.41
2022-08-26T20:54:25.029Z,21.32
2022-08-26T20:56:55.475Z,21.21
2022-08-26T20:59:23.034Z,21.10
2022-08-26T21:01:50.612Z,21.05
2022-08-26T21:04:26.195Z,21.03
2022-08-26T21:06:54.214Z,21.00
2022-08-26T21:09:23.314Z,20.97
2022-08-26T21:11:50.875Z,20.95
2022-08-26T21:14:19.036Z,20.94
2022-08-26T21:16:47.922Z,20.93
2022-08-26T21:19:18.065Z,20.91
2022-08-26T21:21:46.741Z,20.86
2022-08-26T21:24:13.896Z,20.80
2022-08-26T21:26:41.027Z,20.70
2022-08-26T21:29:09.776Z,20.58
2022-08-26T21:31:39.146Z,20.45
2022-08-26T21:34:09.232Z,20.34
2022-08-26T21:36:36.214Z,20.28
2022-08-26T21:39:05.982Z,20.27
2022-08-26T21:41:36.154Z,20.27
2022-08-26T21:44:03.394Z,20.29
2022-08-26T21:46:31.174Z,20.31
2022-08-26T21:49:00.046Z,20.31
2022-08-26T21:51:30.472Z,20.32
2022-08-26T21:53:58.513Z,20.32
2022-08-26T21:56:27.353Z,20.33
2022-08-26T21:58:55.894Z,20.32
2022-08-26T22:01:25.191Z,20.27
2022-08-26T22:03:53.018Z,20.22
2022-08-26T22:06:22.274Z,20.18
2022-08-26T22:08:49.846Z,20.15
2022-08-26T22:11:17.669Z,20.10
2022-08-26T22:13:45.554Z,20.08
2022-08-26T22:16:13.385Z,20.06
2022-08-26T22:18:43.438Z,20.05
2022-08-26T22:21:16.374Z,20.04
2022-08-26T22:23:43.695Z,20.03
2022-08-26T22:26:12.174Z,20.02
2022-08-26T22:28:39.413Z,20.01
2022-08-26T22:31:08.333Z,20.00
2022-08-26T22:33:35.161Z,19.95
2022-08-26T22:36:02.394Z,19.91
2022-08-26T22:38:29.055Z,19.89
2022-08-26T22:40:56.912Z,19.88
2022-08-26T22:43:24.874Z,19.86
2022-08-26T22:45:52.965Z,19.85
2022-08-26T22:48:23.774Z,19.82
2022-08-26T22:50:51.324Z,19.82
2022-08-26T22:53:19.194Z,19.82
2022-08-26T22:55:46.443Z,19.83
2022-08-26T22:58:16.174Z,19.84
2022-08-26T23:00:44.887Z,19.85
2022-08-26T23:03:12.536Z,19.84
2022-08-26T23:05:40.493Z,19.84
2022-08-26T23:08:08.633Z,19.82
2022-08-26T23:10:37.035Z,19.78
2022-08-26T23:13:05.226Z,19.74
2022-08-26T23:15:32.274Z,19.71
2022-08-26T23:17:59.110Z,19.66
2022-08-26T23:20:27.155Z,19.62
2022-08-26T23:22:54.653Z,19.58
2022-08-26T23:25:22.313Z,19.55
2022-08-26T23:27:51.998Z,19.52
2022-08-26T23:30:24.580Z,19.47
2022-08-26T23:32:51.416Z,19.41
2022-08-26T23:35:21.650Z,19.34
2022-08-26T23:37:52.921Z,19.28
2022-08-26T23:40:32.243Z,19.23
2022-08-26T23:43:02.928Z,19.20
2022-08-26T23:45:30.617Z,19.18
2022-08-26T23:47:57.254Z,19.16
2022-08-26T23:50:48.976Z,19.14
2022-08-26T23:53:20.308Z,19.12
2022-08-26T23:55:53.174Z,19.09
2022-08-26T23:58:21.373Z,19.04
